ROMMA est une association bénévole à but non lucratif. Votre soutien est indispensable : ADHERER à ROMMA ou FAIRE un DON

Marignier - (74, Haute-Savoie)

Vallée de l'Arve (470 m)   Longitude: 06° 30' E   Latitude: 46° 05' N Station partenaire n°130
 

Détail journalier du     <<     >>

Température Precipitation Humidité Pression Vent Dir Rafale Dir. rafale
Heure (°C) (mm) (%) (hPa) (km/h) (km/h)
01:00 14.6079101906SO
02:00 14.6078101905SO
03:00 14.207710191O10O
04:00 13.907710193O13OSO
05:00 13.607610191OSO10O
06:00 13.207310191OSO10ONO
07:00 12.807210192O10O
08:00 12.607210192O10SO
09:00 12.507210203OSO11O
10:00 12.507210203OSO13OSO
11:00 12.807210203O13ONO
12:00 13.707110214O11O
13:00 15.106810205OSO15OSO
14:00 17.206310205SO16O
15:00 18.306110197O19O
16:00 19.405810196OSO24O
17:00 19.905610195O18O
18:00 19.905510196O23NO
19:00 18.405810196O16ONO
20:00 17.605910203ONO13O
21:00 16.505910204O16ONO
22:00 15.506110213OSO13ONO
23:00 14.506310223O15OSO
minuit 13.106810221OSO10O

Graphique du 19-09-2019

 

Serveur OMMA